Flight Briefing for CPX309

Departure Arrival
Guam International Airport (PGUM)
Click to view FAA NOTAMS
Tokyo-Narita International Airport (RJAA)
Click to view FAA NOTAMS
Departure Time Arrival Time
N/A N/A
Aircraft Distance
B767-300BDSF 849nm
Departure METAR Arrival METAR
PGUM 192254Z 05013KT 10SM FEW027 OVC065 27/26 A3002 RMK AO2 SLP159 T02670256 $ RJAA 192300Z VRB02KT 5000 BR FEW015 SCT/// 08/07 Q1010 BECMG 05005KT RMK 1SC015 A2984
Suggested Route
UNZ TERYY G205 TEGOD A337 DAGDA G223 ADKAK Y819 CATCH Y815 KETAR Y811 VEPOX Y811 MELON


View recent IFR Routes data
Notes



Charts and Procedures

Charts for PGUM
No chart available
Charts for RJAA
No chart available

Ventusky Weather




{"cat":null,"equip":null,"transponder":null,"pbn":"PBN\/","maxpax":null,"oew":"0.0","mzfw":"0.0","mtow":"0.0","mlw":"0.0","maxfuel":"0.0"} DEVELOPMENTAL TEST USE ONLY